Time;durP1;ratioP1;P1;durP2;ratioP2;P2;SDS_P1;SDS_P2;PMS_P1;PMS_P2;Temp;Humidity;BMP_temperature;BMP_pressure;BME280_temperature;BME280_humidity;BME280_pressure;Samples;Min_cycle;Max_cycle;Signal;HPM_P1;HPM_P2
2022/02/04 00:20:26;;;;;;;7.75;5.70;;;;;;;3.22;100.00;100667.72;5030082;28;20090;-65
2022/02/04 00:26:09;;;;;;;9.73;6.35;;;;;;;3.03;100.00;100663.25;4969500;28;20146;-64
2022/02/04 00:33:50;;;;;;;7.78;5.53;;;;;;;3.12;100.00;100650.00;5030573;28;20489;-67
2022/02/04 00:36:22;;;;;;;9.43;6.18;;;;;;;2.66;100.00;100598.31;5031982;28;20030;-66
2022/02/04 00:38:52;;;;;;;11.23;6.60;;;;;;;3.16;100.00;100662.59;5022292;28;20032;-66
2022/02/04 00:41:22;;;;;;;10.32;6.43;;;;;;;2.92;100.00;100627.13;5048814;28;20124;-64
2022/02/04 00:43:50;;;;;;;13.63;8.25;;;;;;;1.86;100.00;100551.16;5030286;28;20029;-64
2022/02/04 00:46:22;;;;;;;12.18;7.35;;;;;;;1.54;100.00;100566.50;5030256;28;20037;-64
2022/02/04 00:51:32;;;;;;;9.88;7.38;;;;;;;1.88;100.00;100643.09;5030339;28;20117;-64
2022/02/04 00:56:37;;;;;;;12.15;8.10;;;;;;;2.06;100.00;100688.50;5050676;28;20029;-64
2022/02/04 01:26:17;;;;;;;16.10;9.82;;;;;;;1.65;100.00;100661.84;5050277;28;20031;-66
2022/02/04 01:28:45;;;;;;;14.60;9.90;;;;;;;1.68;100.00;100672.78;5050053;28;20546;-67
2022/02/04 01:31:14;;;;;;;19.00;11.27;;;;;;;1.90;100.00;100705.78;5020213;28;20041;-67
2022/02/04 01:33:40;;;;;;;19.42;11.82;;;;;;;1.77;100.00;100682.97;5016345;28;20068;-66
2022/02/04 01:36:05;;;;;;;17.67;11.20;;;;;;;1.77;100.00;100708.03;5033726;28;20072;-66
2022/02/04 01:38:31;;;;;;;20.42;13.25;;;;;;;1.56;100.00;100710.16;5016314;28;20033;-66
2022/02/04 01:40:58;;;;;;;21.15;13.35;;;;;;;1.43;100.00;100678.13;5033887;28;20049;-66
2022/02/04 01:43:24;;;;;;;28.38;16.65;;;;;;;1.60;100.00;100681.84;5033768;28;20075;-65
2022/02/04 01:45:51;;;;;;;23.50;15.07;;;;;;;1.96;100.00;100704.19;5033985;28;20112;-66
2022/02/04 01:48:17;;;;;;;25.70;16.05;;;;;;;1.36;100.00;100706.38;5033511;28;20033;-66
2022/02/04 01:50:45;;;;;;;24.27;16.30;;;;;;;1.43;100.00;100719.84;5015690;28;20026;-66
2022/02/04 01:53:11;;;;;;;25.13;15.82;;;;;;;1.24;100.00;100662.72;5015897;28;20084;-66
2022/02/04 01:55:36;;;;;;;28.27;17.52;;;;;;;1.26;100.00;100694.50;5047025;28;20478;-66
2022/02/04 01:58:01;;;;;;;22.13;14.35;;;;;;;1.40;100.00;100682.25;5053675;28;20029;-66
2022/02/04 02:00:27;;;;;;;22.98;15.15;;;;;;;1.19;100.00;100677.63;5053286;28;20037;-66
2022/02/04 02:02:53;;;;;;;28.27;16.77;;;;;;;1.10;100.00;100676.59;5035066;28;20095;-65
2022/02/04 02:05:18;;;;;;;34.60;21.15;;;;;;;1.40;100.00;100725.66;5053406;28;20418;-66
2022/02/04 02:07:48;;;;;;;64.90;35.90;;;;;;;1.06;100.00;100735.78;5053225;28;20025;-66
2022/02/04 02:10:17;;;;;;;89.40;47.97;;;;;;;1.19;100.00;100687.66;5053154;28;20036;-66
2022/02/04 02:44:49;;;;;;;22.50;13.35;;;;;;;0.32;100.00;100741.47;4952253;29;20122;-66
2022/02/04 03:03:09;;;;;;;14.88;10.15;;;;;;;1.28;100.00;100752.97;5046706;28;20049;-67
2022/02/04 03:05:35;;;;;;;26.45;16.90;;;;;;;0.88;100.00;100762.88;5032054;28;20032;-67
2022/02/04 03:08:00;;;;;;;27.63;17.63;;;;;;;0.22;100.00;100726.25;5032146;28;20029;-67
2022/02/04 03:10:26;;;;;;;28.13;18.73;;;;;;;0.25;100.00;100756.28;5032488;28;20028;-67
2022/02/04 03:12:53;;;;;;;23.67;16.50;;;;;;;0.18;100.00;100719.47;5032215;28;20033;-67
2022/02/04 03:15:20;;;;;;;19.40;13.68;;;;;;;0.33;100.00;100750.69;5015158;28;20029;-67
2022/02/04 03:17:48;;;;;;;20.02;13.85;;;;;;;0.06;100.00;100757.47;5052169;28;20387;-66
2022/02/04 03:20:15;;;;;;;16.92;12.35;;;;;;;0.24;100.00;100725.44;5051769;28;20150;-67
2022/02/04 03:22:40;;;;;;;19.98;12.55;;;;;;;0.53;100.00;100731.19;5051949;28;20036;-67
2022/02/04 03:25:09;;;;;;;19.45;13.85;;;;;;;0.49;100.00;100761.91;5034197;28;20418;-67
2022/02/04 03:27:49;;;;;;;20.23;14.32;;;;;;;0.59;100.00;100763.84;5034007;28;20134;-66
2022/02/04 03:30:24;;;;;;;21.77;14.23;;;;;;;0.54;100.00;100768.72;5034246;28;20028;-67
2022/02/04 03:32:52;;;;;;;19.80;14.23;;;;;;;0.26;100.00;100775.50;5043499;28;20021;-67
2022/02/04 03:35:22;;;;;;;20.58;14.18;;;;;;;0.27;100.00;100745.53;5051777;28;20036;-66
2022/02/04 03:37:50;;;;;;;28.25;16.42;;;;;;;0.74;100.00;100770.06;5042194;28;20116;-66
2022/02/04 03:40:17;;;;;;;30.65;16.90;;;;;;;0.65;100.00;100749.00;5013984;28;20053;-67
2022/02/04 03:42:44;;;;;;;32.05;18.15;;;;;;;0.24;100.00;100742.94;5014013;28;20052;-67
2022/02/04 03:45:09;;;;;;;29.35;15.80;;;;;;;-0.02;100.00;100764.75;5013664;28;20033;-66
2022/02/04 03:47:35;;;;;;;26.13;14.73;;;;;;;-0.04;100.00;100725.56;5031544;28;20029;-67
2022/02/04 03:50:00;;;;;;;24.70;14.45;;;;;;;0.30;100.00;100769.78;5031630;28;20030;-66
2022/02/04 03:52:26;;;;;;;21.65;13.52;;;;;;;0.18;100.00;100717.78;5031409;28;20034;-67
2022/02/04 03:54:51;;;;;;;24.25;14.52;;;;;;;0.38;100.00;100770.78;5012907;28;20475;-67
2022/02/04 03:57:16;;;;;;;23.33;14.07;;;;;;;-0.16;100.00;100742.72;5013678;28;20495;-67
2022/02/04 03:59:42;;;;;;;22.75;13.88;;;;;;;0.11;100.00;100773.44;5031156;28;20555;-67
2022/02/04 04:02:07;;;;;;;20.75;13.40;;;;;;;-0.31;100.00;100755.63;5013367;28;20141;-66
2022/02/04 04:04:34;;;;;;;22.92;14.32;;;;;;;-0.19;100.00;100778.44;5031371;28;20124;-67
2022/02/04 04:07:00;;;;;;;32.88;19.35;;;;;;;-0.31;100.00;100733.16;5013705;28;20124;-67
2022/02/04 04:09:26;;;;;;;33.00;21.48;;;;;;;0.02;100.00;100769.84;5013294;28;20033;-67
2022/02/04 04:11:52;;;;;;;31.70;21.83;;;;;;;0.07;100.00;100735.81;5031131;28;20044;-68
2022/02/04 04:14:18;;;;;;;38.70;25.90;;;;;;;-0.44;100.00;100723.63;5031149;28;20484;-67
2022/02/04 04:16:46;;;;;;;38.17;24.98;;;;;;;-0.18;100.00;100737.66;5031455;28;20033;-67
2022/02/04 04:19:11;;;;;;;42.92;25.05;;;;;;;-0.04;100.00;100776.34;5031062;28;20423;-68
2022/02/04 04:21:37;;;;;;;36.70;26.25;;;;;;;-0.01;100.00;100776.47;5030954;28;20040;-68
2022/02/04 04:24:03;;;;;;;39.35;25.70;;;;;;;-0.25;100.00;100770.78;5030933;28;20029;-64
2022/02/04 04:26:29;;;;;;;47.65;33.80;;;;;;;-0.60;100.00;100738.97;5031361;28;20116;-67
2022/02/04 04:28:54;;;;;;;47.40;33.13;;;;;;;-0.31;100.00;100754.78;5012938;28;20048;-68
2022/02/04 04:31:20;;;;;;;47.78;31.80;;;;;;;0.28;100.00;100788.88;5013083;28;20501;-68
2022/02/04 04:33:45;;;;;;;52.20;32.58;;;;;;;-0.25;100.00;100765.78;5030995;28;20037;-69
2022/02/04 04:36:11;;;;;;;46.22;29.83;;;;;;;0.10;100.00;100778.41;5030684;28;20484;-68
2022/02/04 04:38:52;;;;;;;44.03;30.45;;;;;;;-0.10;100.00;100783.69;5030883;28;20021;-68
2022/02/04 04:41:29;;;;;;;43.47;29.52;;;;;;;-0.43;100.00;100771.91;5013158;28;20053;-68
2022/02/04 05:28:12;;;;;;;40.67;25.95;;;;;;;-0.91;100.00;100783.78;5033916;28;20045;-64
2022/02/04 05:30:38;;;;;;;28.50;19.08;;;;;;;-1.04;100.00;100794.19;5033797;28;20035;-64
2022/02/04 05:33:03;;;;;;;24.42;17.35;;;;;;;-1.08;100.00;100824.81;5033910;28;20030;-64
2022/02/04 05:35:29;;;;;;;25.65;17.05;;;;;;;-0.82;100.00;100816.50;5015464;28;20033;-65
2022/02/04 05:37:54;;;;;;;23.48;15.85;;;;;;;-0.96;100.00;100802.75;5033417;28;20033;-65
2022/02/04 05:40:23;;;;;;;21.83;15.35;;;;;;;-0.54;100.00;100829.03;5033582;28;20030;-65
2022/02/04 05:42:57;;;;;;;30.10;18.45;;;;;;;-0.92;100.00;100812.03;5033559;28;20072;-65
2022/02/04 05:45:26;;;;;;;107.50;44.78;;;;;;;-0.67;100.00;100809.47;5033987;28;20495;-68
2022/02/04 05:47:58;;;;;;;86.28;42.10;;;;;;;-0.75;100.00;100815.88;5039461;28;20116;-67
2022/02/04 05:50:34;;;;;;;37.22;22.85;;;;;;;-0.64;100.00;100802.09;5051285;28;20067;-67
2022/02/04 05:53:22;;;;;;;35.70;23.88;;;;;;;-0.64;100.00;100794.59;5034312;28;20119;-66
2022/02/04 06:00:53;;;;;;;36.15;21.95;;;;;;;1.81;100.00;100836.75;5052512;28;20025;-68
2022/02/04 06:11:43;;;;;;;45.25;27.80;;;;;;;4.67;100.00;100852.09;5052468;28;20055;-67
2022/02/04 06:14:12;;;;;;;45.08;28.23;;;;;;;5.46;100.00;100856.13;5049117;28;20048;-67
2022/02/04 06:22:19;;;;;;;57.40;41.60;;;;;;;6.40;100.00;100842.31;5053499;28;20035;-68
2022/02/04 06:24:49;;;;;;;54.30;37.83;;;;;;;5.73;100.00;100866.38;5052907;28;20032;-68
2022/02/04 06:27:16;;;;;;;51.38;37.53;;;;;;;5.87;100.00;100862.28;5052974;28;20029;-67
2022/02/04 06:29:42;;;;;;;60.88;41.13;;;;;;;6.51;100.00;100844.03;5052577;28;20036;-67
2022/02/04 06:32:08;;;;;;;54.28;39.85;;;;;;;7.81;100.00;100857.50;5034838;28;20542;-68
2022/02/04 06:34:33;;;;;;;46.38;34.08;;;;;;;7.86;100.00;100837.25;5034785;28;20112;-68
2022/02/04 06:36:59;;;;;;;43.75;33.65;;;;;;;7.54;100.00;100871.88;5034553;28;20116;-67
2022/02/04 06:39:24;;;;;;;55.38;40.70;;;;;;;7.43;100.00;100850.81;5034888;28;20520;-68
2022/02/04 06:41:50;;;;;;;68.20;51.80;;;;;;;8.15;100.00;100854.84;5035049;28;20464;-68
2022/02/04 06:44:15;;;;;;;61.30;46.00;;;;;;;7.67;100.00;100817.88;5052419;28;20017;-67
2022/02/04 06:46:40;;;;;;;55.20;43.60;;;;;;;7.97;100.00;100822.84;5052338;28;20036;-68
2022/02/04 06:49:06;;;;;;;61.97;47.40;;;;;;;7.32;100.00;100843.25;5052621;28;20487;-68
2022/02/04 06:51:31;;;;;;;52.78;38.13;;;;;;;5.25;100.00;100842.53;5052302;28;20014;-68
2022/02/04 06:53:57;;;;;;;42.08;31.92;;;;;;;5.63;100.00;100844.44;5052409;28;20033;-68
2022/02/04 06:56:23;;;;;;;57.97;38.33;;;;;;;5.48;100.00;100814.13;5052399;28;20029;-68
2022/02/04 06:58:48;;;;;;;49.60;33.05;;;;;;;7.06;100.00;100844.94;5034303;28;20139;-68
2022/02/04 07:01:14;;;;;;;40.35;28.83;;;;;;;5.75;100.00;100855.47;5052096;28;20132;-67
2022/02/04 07:03:39;;;;;;;41.45;30.23;;;;;;;6.21;100.00;100850.66;5052370;28;20048;-68
2022/02/04 07:06:05;;;;;;;36.65;24.08;;;;;;;4.95;100.00;100864.94;5052104;28;20033;-68
2022/02/04 07:14:04;;;;;;;32.70;23.52;;;;;;;4.85;100.00;100819.53;5051860;28;20484;-68
2022/02/04 07:21:41;;;;;;;31.73;23.02;;;;;;;5.41;100.00;100833.38;5051767;28;20040;-68
2022/02/04 07:24:07;;;;;;;34.25;22.52;;;;;;;4.79;100.00;100858.13;5051596;28;20461;-68
2022/02/04 07:26:32;;;;;;;35.42;23.38;;;;;;;3.83;100.00;100874.56;5034169;28;20029;-68
2022/02/04 07:28:59;;;;;;;38.42;24.50;;;;;;;5.12;100.00;100876.03;5051820;28;20124;-68
2022/02/04 07:31:27;;;;;;;48.08;30.00;;;;;;;3.42;100.00;100847.22;5051782;28;20096;-68
2022/02/04 07:34:06;;;;;;;59.83;42.35;;;;;;;4.50;100.00;100867.03;5033733;28;20040;-68
2022/02/04 07:41:43;;;;;;;46.42;34.72;;;;;;;4.58;100.00;100840.25;5051700;28;20055;-67
2022/02/04 07:44:09;;;;;;;53.50;39.40;;;;;;;4.76;100.00;100860.59;5033433;28;20021;-68
2022/02/04 07:46:34;;;;;;;51.42;37.05;;;;;;;5.12;100.00;100862.59;5033712;28;20047;-68
2022/02/04 07:49:01;;;;;;;53.05;36.92;;;;;;;4.69;100.00;100870.59;5051132;28;20033;-67
2022/02/04 07:51:26;;;;;;;63.55;45.22;;;;;;;4.81;100.00;100871.56;5051502;28;20037;-67
2022/02/04 07:53:52;;;;;;;58.65;41.78;;;;;;;3.94;100.00;100838.69;5033381;28;20509;-67
2022/02/04 07:56:21;;;;;;;61.63;41.55;;;;;;;4.14;100.00;100869.16;5051196;28;20035;-66
2022/02/04 07:59:06;;;;;;;63.83;42.22;;;;;;;4.38;100.00;100869.41;5033492;28;20412;-66
2022/02/04 08:01:32;;;;;;;62.33;43.83;;;;;;;4.24;100.00;100841.56;5050738;28;20021;-66
2022/02/04 08:04:11;;;;;;;67.57;46.03;;;;;;;3.88;100.00;100855.38;5051306;28;20029;-67
2022/02/04 08:06:42;;;;;;;62.33;40.53;;;;;;;3.24;100.00;100862.00;5033101;28;20039;-68
2022/02/04 08:14:20;;;;;;;101.18;62.00;;;;;;;3.94;100.00;100853.78;5050715;28;20040;-68
2022/02/04 08:51:50;;;;;;;35.25;24.65;;;;;;;4.33;100.00;100850.91;5050461;28;20032;-68
2022/02/04 08:54:23;;;;;;;39.88;29.27;;;;;;;4.06;100.00;100848.06;5050485;28;20152;-68
2022/02/04 08:59:20;;;;;;;36.25;26.65;;;;;;;4.79;100.00;100827.03;5050239;28;20480;-68
2022/02/04 09:02:01;;;;;;;;;;;;;;;4.74;100.00;100849.66;5050872;28;20471;-68
2022/02/04 09:04:34;;;;;;;54.37;37.00;;;;;;;4.69;100.00;100852.97;5032540;28;19934;-68
2022/02/04 09:07:05;;;;;;;53.35;35.70;;;;;;;4.99;100.00;100846.50;5032562;28;20047;-68
2022/02/04 09:09:55;;;;;;;48.40;32.67;;;;;;;4.99;100.00;100806.19;5032673;28;20024;-68
2022/02/04 09:20:39;;;;;;;31.65;22.25;;;;;;;5.38;100.00;100837.56;5050460;28;20035;-68
2022/02/04 09:23:05;;;;;;;41.42;25.83;;;;;;;5.53;100.00;100822.53;5032205;28;20053;-68
2022/02/04 09:25:31;;;;;;;26.73;20.27;;;;;;;6.09;100.00;100822.03;5050385;28;20071;-68
2022/02/04 09:27:56;;;;;;;24.58;17.75;;;;;;;5.53;100.00;100777.16;5050536;28;20502;-67
2022/02/04 09:30:23;;;;;;;27.50;18.50;;;;;;;5.84;100.00;100789.13;5049947;28;20545;-68
2022/02/04 09:32:49;;;;;;;23.60;18.13;;;;;;;5.85;100.00;100766.41;5050150;28;20040;-68
2022/02/04 09:35:18;;;;;;;22.10;16.83;;;;;;;6.14;100.00;100786.69;5049913;28;20040;-67
2022/02/04 09:37:46;;;;;;;25.73;18.10;;;;;;;5.54;100.00;100768.75;5049859;28;20040;-68
2022/02/04 09:40:13;;;;;;;28.23;20.95;;;;;;;6.52;100.00;100807.81;5032355;28;20025;-67
2022/02/04 09:42:39;;;;;;;17.95;13.68;;;;;;;6.91;100.00;100795.22;5050349;28;20110;-67
2022/02/04 09:45:09;;;;;;;17.92;12.35;;;;;;;6.51;100.00;100760.69;5050110;28;20025;-68
2022/02/04 09:47:36;;;;;;;23.75;14.70;;;;;;;7.23;100.00;100780.03;5050093;28;20033;-67
2022/02/04 09:50:09;;;;;;;22.00;17.73;;;;;;;6.24;100.00;100793.44;5049741;28;20028;-68
2022/02/04 10:12:32;;;;;;;26.83;20.48;;;;;;;7.18;100.00;100775.81;5053395;28;20491;-69
2022/02/04 10:17:07;;;;;;;19.40;13.02;;;;;;;7.62;100.00;100779.09;5053101;28;20033;-67
2022/02/04 10:22:00;;;;;;;18.25;12.18;;;;;;;7.65;100.00;100726.78;5053133;28;20091;-67
2022/02/04 10:24:28;;;;;;;13.80;9.18;;;;;;;7.97;100.00;100772.22;5053116;28;20442;-67
2022/02/04 10:27:11;;;;;;;29.77;22.63;;;;;;;7.13;100.00;100767.41;5053020;28;20025;-67
2022/02/04 10:29:38;;;;;;;14.75;8.32;;;;;;;7.21;100.00;100751.38;5052897;28;20036;-68
2022/02/04 10:32:04;;;;;;;11.52;8.15;;;;;;;8.18;100.00;100761.13;5035165;28;20056;-67
2022/02/04 10:34:31;;;;;;;25.77;17.85;;;;;;;7.46;100.00;100747.94;5052665;28;20029;-68
2022/02/04 10:37:01;;;;;;;13.10;9.65;;;;;;;6.82;100.00;100747.22;5052908;28;20016;-68
2022/02/04 10:42:59;;;;;;;16.10;11.32;;;;;;;8.16;100.00;100729.91;5047492;28;20565;-68
2022/02/04 10:45:50;;;;;;;12.65;8.85;;;;;;;8.08;100.00;100750.19;4994451;28;20491;-68
2022/02/04 10:48:49;;;;;;;18.42;11.85;;;;;;;7.90;100.00;100742.72;5011311;28;20041;-68
2022/02/04 10:56:49;;;;;;;11.80;8.05;;;;;;;8.59;100.00;100694.16;5012293;28;20042;-67
2022/02/04 11:04:31;;;;;;;13.23;8.90;;;;;;;8.93;100.00;100729.34;5012271;28;20524;-68
2022/02/04 11:33:28;;;;;;;13.55;9.02;;;;;;;9.01;100.00;100702.22;5011958;28;20049;-67
2022/02/04 11:35:02;;;;;;;16.30;11.20;;;;;;;8.06;100.00;100706.31;4997929;28;20038;-68
2022/02/04 11:50:18;;;;;;;17.15;11.65;;;;;;;8.47;100.00;100694.25;5011803;28;20056;-68
2022/02/04 11:52:43;;;;;;;15.02;10.75;;;;;;;8.15;100.00;100702.91;5011490;28;20092;-69
2022/02/04 11:55:12;;;;;;;14.00;10.13;;;;;;;8.15;100.00;100701.22;5011459;28;20057;-68
2022/02/04 11:57:49;;;;;;;16.08;11.40;;;;;;;7.73;100.00;100691.31;5011796;28;20108;-67
2022/02/04 12:00:20;;;;;;;13.85;11.88;;;;;;;8.32;94.80;100696.06;4994300;28;20084;-69
2022/02/04 12:02:54;;;;;;;24.10;14.98;;;;;;;8.42;94.74;100679.94;5010093;28;20527;-68
2022/02/04 12:05:20;;;;;;;14.35;9.00;;;;;;;8.40;92.92;100689.22;5011508;28;20526;-68
2022/02/04 12:07:48;;;;;;;13.75;8.95;;;;;;;9.44;96.10;100681.44;5011272;28;20034;-68
2022/02/04 12:10:13;;;;;;;8.90;7.20;;;;;;;8.38;92.77;100686.72;5011572;28;20065;-68
2022/02/04 12:13:00;;;;;;;21.23;14.55;;;;;;;9.08;91.63;100675.94;5011457;28;20064;-68
2022/02/04 12:17:57;;;;;;;12.95;10.65;;;;;;;8.65;94.66;100645.09;5011270;28;20551;-68
2022/02/04 12:20:44;;;;;;;21.20;13.82;;;;;;;8.81;95.75;100661.00;5009595;28;20412;-68
2022/02/04 12:23:33;;;;;;;14.65;10.15;;;;;;;8.94;96.53;100660.88;5009854;28;20034;-68
2022/02/04 12:26:05;;;;;;;9.05;5.97;;;;;;;8.22;89.74;100629.38;5011233;28;20033;-66
2022/02/04 12:28:43;;;;;;;8.93;6.70;;;;;;;8.44;86.16;100670.63;5009449;28;20064;-67
2022/02/04 12:31:13;;;;;;;11.88;10.30;;;;;;;8.18;87.95;100649.72;5010053;28;20072;-67
2022/02/04 12:33:47;;;;;;;8.10;5.47;;;;;;;9.08;87.41;100661.56;5009812;28;20033;-67
2022/02/04 12:36:33;;;;;;;15.10;8.95;;;;;;;9.49;92.32;100664.44;5011000;28;20456;-67
2022/02/04 12:39:04;;;;;;;20.02;10.50;;;;;;;8.86;85.77;100671.94;5010685;28;20036;-67
2022/02/04 12:41:32;;;;;;;14.43;9.65;;;;;;;9.50;85.65;100601.84;5009656;28;20488;-68
2022/02/04 12:44:00;;;;;;;13.50;10.95;;;;;;;10.05;86.42;100656.06;5009716;28;20140;-68
2022/02/04 12:46:28;;;;;;;15.68;9.43;;;;;;;9.71;74.75;100649.78;5010591;28;20435;-67
2022/02/04 12:49:06;;;;;;;15.75;9.63;;;;;;;9.50;76.53;100628.06;5009608;28;20092;-68
2022/02/04 12:51:42;;;;;;;42.17;18.65;;;;;;;9.89;75.48;100638.50;5009384;28;20084;-68
2022/02/04 12:54:08;;;;;;;13.27;8.10;;;;;;;9.97;78.47;100611.31;5009758;28;20025;-68
2022/02/04 12:56:40;;;;;;;15.25;7.82;;;;;;;10.30;78.22;100643.84;5009574;28;20488;-67
2022/02/04 13:07:38;;;;;;;31.77;19.35;;;;;;;10.33;74.86;100634.47;5010811;28;20045;-67
2022/02/04 13:10:04;;;;;;;10.57;6.35;;;;;;;9.44;71.55;100601.94;5010498;28;20037;-67
2022/02/04 13:12:30;;;;;;;9.60;6.65;;;;;;;9.94;65.15;100637.59;5010901;28;20034;-68
2022/02/04 13:14:55;;;;;;;7.82;5.90;;;;;;;10.24;63.13;100616.81;5009470;28;20038;-68
2022/02/04 13:17:32;;;;;;;12.95;9.50;;;;;;;10.15;69.69;100586.50;5010529;28;20037;-68
2022/02/04 13:19:58;;;;;;;16.83;9.80;;;;;;;11.60;70.28;100611.66;5010745;28;20030;-67
2022/02/04 13:22:24;;;;;;;20.35;14.18;;;;;;;10.47;77.18;100583.41;5010514;28;20116;-67
2022/02/04 13:25:19;;;;;;;13.80;10.70;;;;;;;10.71;75.30;100620.25;4992519;28;20147;-68
2022/02/04 13:28:08;;;;;;;15.52;11.68;;;;;;;11.04;78.95;100623.00;5013011;28;20099;-67
2022/02/04 13:31:08;;;;;;;15.23;10.13;;;;;;;9.75;80.33;100620.09;5014353;28;20038;-68
2022/02/04 13:33:57;;;;;;;29.27;19.77;;;;;;;10.87;75.40;100611.47;5007507;28;20518;-67
2022/02/04 13:36:43;;;;;;;18.63;13.50;;;;;;;12.55;68.00;100613.63;5013053;28;20030;-67
2022/02/04 13:46:48;;;;;;;12.88;9.10;;;;;;;13.97;52.76;100601.84;5014097;28;20030;-68
2022/02/04 13:52:02;;;;;;;14.15;9.82;;;;;;;14.03;53.56;100573.53;5013880;28;20038;-68
2022/02/04 13:57:12;;;;;;;11.38;8.95;;;;;;;13.67;51.67;100607.03;5014030;28;20534;-68
2022/02/04 13:59:43;;;;;;;15.80;9.43;;;;;;;14.12;49.86;100601.38;5012368;28;20057;-68
2022/02/04 14:02:14;;;;;;;12.57;8.27;;;;;;;12.85;56.51;100612.84;5013719;28;20053;-67
2022/02/04 14:05:00;;;;;;;10.48;8.35;;;;;;;12.24;56.81;100602.53;5014190;28;20044;-68
2022/02/04 14:07:46;;;;;;;17.27;13.65;;;;;;;12.97;57.38;100620.16;5012476;28;20034;-68
2022/02/04 14:10:33;;;;;;;13.98;9.55;;;;;;;12.13;54.29;100590.91;5012428;28;20049;-70
2022/02/04 14:12:59;;;;;;;12.25;9.20;;;;;;;13.28;56.16;100615.91;5013306;28;20037;-68
2022/02/04 14:15:33;;;;;;;12.45;8.40;;;;;;;11.86;59.54;100621.28;5013618;28;20032;-68
2022/02/04 14:18:11;;;;;;;15.55;9.82;;;;;;;13.58;56.23;100596.28;5012268;28;20523;-70
2022/02/04 14:20:40;;;;;;;16.27;11.13;;;;;;;12.98;54.36;100615.00;5013404;28;20479;-71
2022/02/04 14:23:07;;;;;;;12.82;10.43;;;;;;;12.44;61.63;100626.66;4995623;28;20041;-67
2022/02/04 14:31:06;;;;;;;18.17;12.30;;;;;;;12.00;63.86;100614.16;5013404;28;20038;-69
2022/02/04 14:36:57;;;;;;;15.88;10.18;;;;;;;11.07;71.37;100566.94;5013362;28;20030;-69
2022/02/04 15:02:46;;;;;;;19.35;12.85;;;;;;;10.71;77.54;100557.53;5012418;28;20081;-68
2022/02/04 15:05:16;;;;;;;24.48;14.85;;;;;;;10.84;78.30;100583.53;5012610;28;20350;-69
2022/02/04 15:07:43;;;;;;;22.23;10.27;;;;;;;10.59;79.91;100584.88;4994889;28;20057;-69
2022/02/04 15:10:14;;;;;;;19.05;11.23;;;;;;;8.64;96.71;100591.03;5012581;28;20487;-69
2022/02/04 15:12:40;;;;;;;18.42;12.23;;;;;;;7.78;100.00;100583.34;5011258;28;20034;-68
2022/02/04 15:15:06;;;;;;;27.38;12.23;;;;;;;7.57;100.00;100559.00;5012338;28;20022;-68
2022/02/04 15:17:31;;;;;;;29.05;16.13;;;;;;;7.47;100.00;100529.56;5012434;28;20570;-68
2022/02/04 15:19:57;;;;;;;57.28;37.05;;;;;;;7.32;100.00;100554.94;4994776;28;20018;-67
2022/02/04 15:22:26;;;;;;;42.97;26.92;;;;;;;7.34;100.00;100568.44;4994635;28;20489;-67
2022/02/04 15:24:56;;;;;;;37.65;21.25;;;;;;;7.41;100.00;100576.81;4994688;28;20025;-67
2022/02/04 15:27:21;;;;;;;31.38;16.60;;;;;;;6.69;100.00;100538.41;5012136;28;20057;-67
2022/02/04 15:29:49;;;;;;;29.95;16.35;;;;;;;6.89;100.00;100589.66;5011860;28;20049;-68
2022/02/04 15:32:15;;;;;;;108.65;59.28;;;;;;;6.74;100.00;100597.31;4994643;28;20034;-67
2022/02/04 15:34:40;;;;;;;46.83;27.33;;;;;;;6.81;100.00;100601.50;5012198;28;20040;-68
2022/02/04 15:37:05;;;;;;;42.00;22.55;;;;;;;6.45;100.00;100608.31;5011801;28;20061;-68
2022/02/04 15:39:31;;;;;;;53.45;26.10;;;;;;;6.11;100.00;100567.97;5012330;28;20130;-68
2022/02/04 15:42:04;;;;;;;58.58;30.00;;;;;;;5.99;100.00;100582.25;5011944;28;20519;-68
2022/02/04 15:52:48;;;;;;;63.97;38.85;;;;;;;5.60;100.00;100569.56;5012181;28;20041;-67
2022/02/04 15:57:54;;;;;;;69.25;43.45;;;;;;;5.72;100.00;100608.28;5011805;28;20037;-67
2022/02/04 16:00:38;;;;;;;65.22;39.95;;;;;;;5.32;100.00;100590.50;5011812;28;20030;-68
2022/02/04 16:05:47;;;;;;;67.78;39.25;;;;;;;5.33;100.00;100615.72;5011664;28;20056;-69
2022/02/04 16:08:17;;;;;;;87.60;46.80;;;;;;;5.39;100.00;100619.97;5011587;28;20790;-68
2022/02/04 16:13:56;;;;;;;64.03;36.40;;;;;;;5.31;100.00;100603.97;4978018;28;20067;-68
2022/02/04 16:16:29;;;;;;;49.13;30.73;;;;;;;5.26;100.00;100607.31;4993945;28;20496;-68
2022/02/04 16:19:08;;;;;;;33.95;22.42;;;;;;;5.34;100.00;100614.91;5010210;28;20018;-66
2022/02/04 16:29:14;;;;;;;58.90;35.90;;;;;;;5.20;100.00;100589.66;5050282;28;20051;-68
2022/02/04 16:31:39;;;;;;;51.05;35.35;;;;;;;4.39;100.00;100587.56;5049659;28;20115;-68
2022/02/04 16:34:09;;;;;;;47.92;34.20;;;;;;;4.54;100.00;100590.97;5050648;28;20376;-67
2022/02/04 16:36:41;;;;;;;46.08;31.58;;;;;;;4.39;100.00;100564.06;5032026;28;20025;-67
2022/02/04 16:39:08;;;;;;;;;;;;;;;4.85;100.00;100628.13;5050018;28;20510;-67
2022/02/04 16:41:48;;;;;;;51.25;32.10;;;;;;;4.57;100.00;100608.63;5049871;28;19924;-66
2022/02/04 16:44:13;;;;;;;50.90;35.03;;;;;;;4.05;100.00;100582.25;5032290;28;20025;-68
2022/02/04 16:46:39;;;;;;;46.47;31.23;;;;;;;4.37;100.00;100598.44;5032211;28;20486;-66
2022/02/04 16:49:04;;;;;;;42.15;29.80;;;;;;;4.14;100.00;100594.94;5050220;28;20439;-67
2022/02/04 16:51:30;;;;;;;69.15;46.25;;;;;;;4.71;100.00;100629.72;5050968;28;20033;-67
2022/02/04 16:53:55;;;;;;;64.55;43.45;;;;;;;4.36;100.00;100591.72;5032607;28;20391;-68
2022/02/04 16:56:21;;;;;;;70.88;47.33;;;;;;;4.21;100.00;100586.59;5029889;28;20502;-68
2022/02/04 16:58:46;;;;;;;63.35;43.20;;;;;;;4.36;100.00;100637.84;5046986;28;20033;-67
2022/02/04 17:01:18;;;;;;;59.08;40.63;;;;;;;4.45;100.00;100631.22;5033922;28;20029;-68
2022/02/04 17:03:44;;;;;;;59.67;40.85;;;;;;;4.20;100.00;100618.44;5054741;28;20045;-68
2022/02/04 17:06:11;;;;;;;77.53;46.75;;;;;;;4.02;100.00;100632.56;5036791;28;20609;-68
2022/02/04 17:08:52;;;;;;;70.90;48.88;;;;;;;4.39;100.00;100630.34;5036549;28;20147;-65
2022/02/04 17:11:21;;;;;;;66.97;42.33;;;;;;;3.85;100.00;100621.47;4691669;28;9999789;-68
2022/02/04 17:13:47;;;;;;;144.00;92.47;;;;;;;4.25;100.00;100585.78;5037201;28;20029;-66
2022/02/04 17:16:13;;;;;;;172.52;112.38;;;;;;;3.98;100.00;100568.78;5043827;28;20491;-66
2022/02/04 17:18:39;;;;;;;126.50;87.97;;;;;;;4.32;100.00;100633.63;5046111;28;20031;-66
2022/02/04 17:21:06;;;;;;;95.05;59.08;;;;;;;4.03;100.00;100626.69;5036192;28;20032;-65
2022/02/04 17:23:42;;;;;;;93.60;59.22;;;;;;;3.66;100.00;100640.59;5036327;28;20483;-66
2022/02/04 17:26:08;;;;;;;92.60;56.60;;;;;;;3.36;100.00;100607.59;5036164;28;20025;-69
2022/02/04 17:28:33;;;;;;;86.18;55.20;;;;;;;3.76;100.00;100618.88;5020316;28;20091;-66
2022/02/04 17:31:05;;;;;;;85.95;53.85;;;;;;;3.66;100.00;100629.69;5033984;28;20455;-66
2022/02/04 17:33:31;;;;;;;70.65;50.75;;;;;;;4.04;100.00;100628.38;5016204;28;20120;-66
2022/02/04 17:35:58;;;;;;;79.68;52.95;;;;;;;3.71;100.00;100633.06;5034010;28;20044;-67
2022/02/04 17:38:24;;;;;;;71.55;47.97;;;;;;;3.73;100.00;100626.38;5033957;28;20032;-67
2022/02/04 17:40:51;;;;;;;55.95;37.13;;;;;;;5.00;100.00;100631.56;5016289;28;20064;-69
2022/02/04 17:43:18;;;;;;;74.72;52.88;;;;;;;3.26;100.00;100619.19;5016041;28;20084;-67
2022/02/04 17:45:43;;;;;;;88.10;61.45;;;;;;;3.12;100.00;100603.13;5033998;28;20029;-67
2022/02/04 17:48:19;;;;;;;79.85;55.53;;;;;;;3.89;100.00;100635.75;5033719;28;20033;-66
2022/02/04 17:51:16;;;;;;;89.22;59.38;;;;;;;3.49;100.00;100642.91;5033944;28;20040;-66
2022/02/04 17:53:48;;;;;;;89.88;62.92;;;;;;;3.79;100.00;100632.31;5041370;28;20517;-64
2022/02/04 17:56:35;;;;;;;97.13;68.75;;;;;;;3.53;100.00;100630.38;5054093;28;20025;-65
2022/02/04 17:59:09;;;;;;;104.25;76.60;;;;;;;3.20;100.00;100594.00;5035649;28;20036;-64